Time;durP1;ratioP1;P1;durP2;ratioP2;P2;SDS_P1;SDS_P2;PMS_P1;PMS_P2;Temp;Humidity;BMP_temperature;BMP_pressure;BME280_temperature;BME280_humidity;BME280_pressure;Samples;Min_cycle;Max_cycle;Signal;HPM_P1;HPM_P2
2021/10/16 00:00:52;;;;;;;16.00;2.65;;;;;;;7.72;98.51;101464.25;5113907;27;20045;-86
2021/10/16 00:03:17;;;;;;;14.23;2.47;;;;;;;7.68;98.31;101468.97;5131504;27;20058;-85
2021/10/16 00:05:44;;;;;;;10.57;2.33;;;;;;;7.75;98.46;101469.28;5113656;27;20170;-86
2021/10/16 00:08:09;;;;;;;16.60;2.38;;;;;;;7.71;98.60;101467.88;5130827;27;20034;-86
2021/10/16 00:10:34;;;;;;;8.37;2.20;;;;;;;7.61;98.65;101458.00;5131565;27;20027;-86
2021/10/16 00:13:00;;;;;;;17.40;2.77;;;;;;;7.74;98.98;101475.59;5131751;27;20039;-86
2021/10/16 00:15:26;;;;;;;18.42;3.00;;;;;;;7.76;99.15;101476.31;5113691;27;20650;-86
2021/10/16 00:17:52;;;;;;;16.55;2.20;;;;;;;7.75;99.21;101485.25;5131043;27;20042;-86
2021/10/16 00:20:17;;;;;;;14.63;3.65;;;;;;;7.79;99.02;101497.31;5113778;27;20393;-86
2021/10/16 00:22:43;;;;;;;15.30;2.83;;;;;;;7.69;99.02;101475.13;5130673;27;20031;-86
2021/10/16 00:25:09;;;;;;;19.80;3.30;;;;;;;7.77;99.19;101494.81;5113429;27;20122;-86
2021/10/16 00:27:34;;;;;;;8.98;2.33;;;;;;;7.80;98.92;101483.06;5130148;27;20152;-86
2021/10/16 00:30:00;;;;;;;13.83;2.83;;;;;;;7.82;99.21;101486.44;5129229;27;20031;-86
2021/10/16 00:32:25;;;;;;;15.53;1.97;;;;;;;7.80;99.74;101499.88;5112917;27;20182;-86
2021/10/16 00:34:51;;;;;;;16.23;2.70;;;;;;;7.80;99.41;101494.53;5129947;27;20049;-85
2021/10/16 00:37:16;;;;;;;21.83;2.60;;;;;;;7.69;99.77;101499.88;5113303;27;20451;-86
2021/10/16 00:39:42;;;;;;;10.18;1.65;;;;;;;7.64;100.00;101501.25;5130342;27;20039;-86
2021/10/16 00:42:08;;;;;;;15.68;3.60;;;;;;;7.53;99.76;101492.31;5130078;27;20721;-86
2021/10/16 00:44:34;;;;;;;17.20;2.23;;;;;;;7.68;99.99;101516.81;5114070;27;20027;-86
2021/10/16 00:46:59;;;;;;;15.10;2.20;;;;;;;7.70;99.82;101512.22;5130888;27;20035;-86
2021/10/16 00:49:26;;;;;;;8.27;2.50;;;;;;;7.69;99.56;101507.03;5131254;27;20452;-86
2021/10/16 00:51:53;;;;;;;19.08;3.25;;;;;;;7.71;99.04;101510.41;5112942;27;20049;-85
2021/10/16 00:54:22;;;;;;;;;;;;;;;7.71;98.46;101500.59;5130103;27;20399;-85
2021/10/16 00:56:50;;;;;;;17.25;3.25;;;;;;;7.72;97.67;101496.97;5131055;27;19912;-86
2021/10/16 00:59:18;;;;;;;12.65;2.95;;;;;;;7.80;97.26;101494.53;5112802;27;20035;-85
2021/10/16 01:01:45;;;;;;;11.60;2.65;;;;;;;7.76;96.35;101487.78;5112631;27;20517;-85
2021/10/16 01:04:10;;;;;;;11.50;2.15;;;;;;;7.90;95.46;101478.66;5112508;27;20031;-86
2021/10/16 01:06:42;;;;;;;14.40;3.35;;;;;;;7.90;95.41;101489.31;5113530;27;20027;-86
2021/10/16 01:09:08;;;;;;;13.95;3.70;;;;;;;7.90;95.24;101484.00;5129665;27;20516;-86
2021/10/16 01:11:35;;;;;;;;;;;;;;;7.89;94.80;101487.63;5113355;28;20476;-86
2021/10/16 01:14:09;;;;;;;13.50;2.40;;;;;;;7.96;93.79;101478.19;5111888;28;19915;-85
2021/10/16 01:16:36;;;;;;;21.88;3.78;;;;;;;7.93;93.39;101478.41;5112182;28;20039;-85
2021/10/16 01:19:06;;;;;;;11.25;2.47;;;;;;;7.81;92.60;101448.38;5129564;27;20085;-86
2021/10/16 01:21:34;;;;;;;10.50;2.28;;;;;;;7.87;92.46;101475.44;5129475;28;20057;-85
2021/10/16 01:24:00;;;;;;;11.13;1.80;;;;;;;7.93;91.50;101470.44;5130138;27;20023;-85
2021/10/16 01:26:28;;;;;;;13.07;1.83;;;;;;;7.94;91.37;101468.63;5112660;28;20111;-85
2021/10/16 01:28:57;;;;;;;15.10;2.53;;;;;;;7.83;91.22;101465.03;5129583;27;20401;-86
2021/10/16 01:31:24;;;;;;;9.73;2.55;;;;;;;7.84;91.30;101471.19;5129345;28;20031;-85
2021/10/16 01:33:50;;;;;;;15.30;3.30;;;;;;;7.78;90.91;101466.41;5128933;28;20383;-86
2021/10/16 01:36:16;;;;;;;15.93;2.95;;;;;;;7.82;90.58;101459.88;5130074;27;20055;-85
2021/10/16 01:38:41;;;;;;;16.20;1.90;;;;;;;7.87;90.07;101465.63;5112394;28;20103;-84
2021/10/16 01:41:07;;;;;;;17.77;3.17;;;;;;;7.72;90.26;101453.59;5114924;27;20287;-85
2021/10/16 01:43:34;;;;;;;13.60;2.25;;;;;;;7.74;89.73;101452.50;5132781;27;20285;-86
2021/10/16 01:46:00;;;;;;;14.23;2.17;;;;;;;7.95;89.19;101460.50;5132569;27;20019;-85
2021/10/16 01:48:26;;;;;;;;;;;;;;;8.04;88.15;101464.22;5133848;27;20104;-85
2021/10/16 01:50:52;;;;;;;;;;;;;;;8.02;87.88;101466.16;5133629;27;19919;-85
2021/10/16 01:53:28;;;;;;;10.30;1.80;;;;;;;7.92;88.23;101466.09;5132879;27;19998;-85
2021/10/16 01:55:58;;;;;;;10.32;1.80;;;;;;;7.89;88.69;101471.69;5133154;27;20037;-86
2021/10/16 01:58:26;;;;;;;17.55;2.15;;;;;;;7.90;89.25;101473.34;5116297;27;20043;-87
2021/10/16 02:01:17;;;;;;;15.65;2.10;;;;;;;7.88;90.21;101477.94;5117612;27;20031;-85
2021/10/16 02:03:47;;;;;;;12.38;2.22;;;;;;;7.85;91.36;101483.53;5116303;27;20397;-85
2021/10/16 02:06:21;;;;;;;12.90;2.45;;;;;;;7.88;91.75;101491.25;5133354;27;20031;-86
2021/10/16 02:08:52;;;;;;;9.25;2.63;;;;;;;7.90;91.23;101483.16;5116947;27;20387;-85
2021/10/16 02:11:17;;;;;;;11.07;3.03;;;;;;;7.86;91.16;101479.88;5132798;27;20031;-85
2021/10/16 02:13:50;;;;;;;8.45;2.20;;;;;;;7.92;91.43;101489.19;5132317;27;20034;-86
2021/10/16 02:16:15;;;;;;;11.77;2.35;;;;;;;7.90;92.04;101496.44;5132790;27;20092;-85
2021/10/16 02:18:49;;;;;;;8.88;1.85;;;;;;;7.92;91.76;101490.03;5116708;27;20035;-85
2021/10/16 02:21:19;;;;;;;18.00;5.22;;;;;;;7.86;92.81;101492.34;5132675;27;20031;-85
2021/10/16 02:23:44;;;;;;;9.25;1.60;;;;;;;7.82;92.86;101505.06;5115129;27;20099;-85
2021/10/16 02:26:12;;;;;;;14.73;2.72;;;;;;;7.88;92.15;101490.41;5115583;27;20091;-85
2021/10/16 02:28:40;;;;;;;16.73;2.50;;;;;;;7.88;92.23;101491.25;5116022;27;20046;-85
2021/10/16 02:31:23;;;;;;;11.65;1.75;;;;;;;7.81;93.15;101487.41;5132736;27;20572;-84
2021/10/16 02:33:50;;;;;;;11.95;2.00;;;;;;;7.75;93.69;101485.25;5132148;27;20031;-85
2021/10/16 02:36:16;;;;;;;11.60;3.15;;;;;;;7.68;93.88;101494.69;5132121;27;20547;-85
2021/10/16 02:38:42;;;;;;;16.13;3.70;;;;;;;7.67;94.25;101485.03;5114953;27;20062;-85
2021/10/16 02:41:08;;;;;;;11.73;2.33;;;;;;;7.67;94.64;101496.50;5132395;27;20127;-85
2021/10/16 02:43:33;;;;;;;13.40;2.20;;;;;;;7.66;95.49;101504.63;5131599;27;20056;-85
2021/10/16 02:45:59;;;;;;;11.10;3.03;;;;;;;7.57;96.01;101493.75;5114247;27;20363;-85
2021/10/16 02:48:24;;;;;;;15.93;2.27;;;;;;;7.49;95.90;101496.22;5131241;27;20035;-85
2021/10/16 02:50:50;;;;;;;8.85;2.20;;;;;;;7.58;95.53;101495.44;5131486;27;20039;-85
2021/10/16 02:53:19;;;;;;;10.70;2.25;;;;;;;7.44;95.23;101493.06;5130037;27;20035;-85
2021/10/16 02:55:45;;;;;;;17.10;3.63;;;;;;;7.38;95.42;101488.25;5113625;27;20031;-85
2021/10/16 02:58:10;;;;;;;17.10;2.13;;;;;;;7.40;95.87;101497.78;5113827;27;20631;-85
2021/10/16 03:00:36;;;;;;;16.02;2.97;;;;;;;7.42;95.65;101496.81;5114312;27;20104;-85
2021/10/16 03:03:04;;;;;;;12.93;3.58;;;;;;;7.42;94.92;101487.00;5131841;27;20038;-85
2021/10/16 03:05:29;;;;;;;8.10;2.70;;;;;;;7.44;94.92;101493.06;5114838;27;20039;-85
2021/10/16 03:07:56;;;;;;;10.70;1.98;;;;;;;7.34;95.31;101495.63;5115146;27;20419;-85
2021/10/16 03:10:21;;;;;;;11.60;2.27;;;;;;;7.22;95.72;101493.09;5131957;27;20488;-84
2021/10/16 03:12:48;;;;;;;7.55;2.63;;;;;;;7.09;96.85;101498.53;5131883;27;20349;-85
2021/10/16 03:15:17;;;;;;;13.07;2.67;;;;;;;7.01;97.14;101515.09;5131305;27;20125;-85
2021/10/16 03:17:42;;;;;;;14.00;2.50;;;;;;;7.01;97.92;101507.13;5113749;27;20167;-85
2021/10/16 03:20:10;;;;;;;12.02;2.63;;;;;;;7.06;98.28;101518.22;5113977;27;20046;-85
2021/10/16 03:22:35;;;;;;;15.90;2.10;;;;;;;7.12;98.56;101509.78;5113264;27;20539;-86
2021/10/16 03:25:01;;;;;;;24.13;4.97;;;;;;;7.15;98.93;101517.50;5114803;27;20099;-84
2021/10/16 03:27:27;;;;;;;13.45;2.80;;;;;;;7.19;99.48;101518.09;5114971;27;20069;-85
2021/10/16 03:29:54;;;;;;;9.50;1.63;;;;;;;7.23;99.43;101505.41;5131580;27;20031;-85
2021/10/16 03:32:20;;;;;;;7.68;1.85;;;;;;;7.24;99.43;101513.25;5114224;27;20058;-85
2021/10/16 03:34:45;;;;;;;10.70;2.30;;;;;;;7.17;99.60;101507.59;5113957;27;20259;-86
2021/10/16 03:37:10;;;;;;;12.97;3.90;;;;;;;7.21;99.50;101512.66;5114325;27;20423;-87
2021/10/16 03:39:38;;;;;;;14.00;4.07;;;;;;;7.09;99.24;101499.38;5131340;27;20053;-85
2021/10/16 03:42:05;;;;;;;11.15;2.88;;;;;;;7.11;98.26;101501.91;5130804;27;20024;-85
2021/10/16 03:44:34;;;;;;;12.57;2.45;;;;;;;7.06;96.02;101483.69;5130639;27;20064;-85
2021/10/16 03:47:00;;;;;;;;;;;;;;;7.15;94.46;101482.97;5131222;27;20042;-86
2021/10/16 03:49:25;;;;;;;7.97;1.80;;;;;;;7.08;92.88;101465.00;5113334;27;19915;-86
2021/10/16 03:51:51;;;;;;;11.80;3.37;;;;;;;7.03;92.24;101465.34;5130677;27;20046;-86
2021/10/16 03:54:17;;;;;;;19.35;3.92;;;;;;;7.02;92.08;101466.31;5113592;27;20035;-86
2021/10/16 03:56:43;;;;;;;8.20;2.20;;;;;;;7.08;91.55;101468.50;5113999;27;20066;-86
2021/10/16 03:59:08;;;;;;;8.57;1.83;;;;;;;7.18;91.18;101473.91;5113677;27;20493;-86
2021/10/16 04:01:34;;;;;;;7.70;2.20;;;;;;;7.21;90.69;101475.47;5114049;27;20040;-86
2021/10/16 04:04:00;;;;;;;7.97;1.87;;;;;;;7.24;91.22;101470.78;5131344;27;20042;-86
2021/10/16 04:06:25;;;;;;;17.43;3.70;;;;;;;7.25;90.78;101471.59;5113736;27;20031;-86
2021/10/16 04:08:51;;;;;;;13.35;2.58;;;;;;;7.26;91.76;101484.78;5130656;27;20039;-86
2021/10/16 04:11:20;;;;;;;8.23;1.92;;;;;;;7.26;92.49;101491.88;5113930;27;20038;-86
2021/10/16 04:13:45;;;;;;;11.47;2.83;;;;;;;7.31;92.82;101493.22;5113876;27;20038;-86
2021/10/16 04:16:11;;;;;;;14.20;2.50;;;;;;;7.26;92.14;101495.41;5130989;27;20039;-86
2021/10/16 04:18:37;;;;;;;10.77;1.77;;;;;;;7.34;92.03;101489.47;5113723;27;20084;-86
2021/10/16 04:21:02;;;;;;;11.43;1.97;;;;;;;7.29;91.54;101483.69;5113726;27;20096;-86
2021/10/16 04:23:28;;;;;;;8.07;2.08;;;;;;;7.28;91.36;101489.94;5130532;27;20115;-86
2021/10/16 04:25:53;;;;;;;18.45;2.63;;;;;;;7.33;90.08;101480.66;5130493;27;20376;-86
2021/10/16 04:28:19;;;;;;;9.35;2.05;;;;;;;7.36;90.17;101482.22;5130538;27;20028;-86
2021/10/16 04:30:55;;;;;;;10.63;2.28;;;;;;;7.26;90.79;101470.63;5114677;27;20038;-86
2021/10/16 04:33:21;;;;;;;9.93;2.43;;;;;;;7.23;91.33;101477.03;5112866;27;20043;-86
2021/10/16 04:35:46;;;;;;;9.40;2.22;;;;;;;7.00;91.29;101468.28;5130072;27;20055;-86
2021/10/16 04:38:11;;;;;;;18.60;2.33;;;;;;;6.95;92.14;101475.72;5130308;27;20027;-85
2021/10/16 04:40:38;;;;;;;17.40;2.42;;;;;;;6.86;92.87;101481.75;5113224;27;20042;-86
2021/10/16 04:43:06;;;;;;;11.13;2.10;;;;;;;6.73;93.17;101479.22;5113397;27;20363;-86
2021/10/16 04:45:35;;;;;;;15.43;2.10;;;;;;;6.65;93.96;101484.28;5113316;27;20031;-87
2021/10/16 04:48:01;;;;;;;13.35;2.13;;;;;;;6.36;94.78;101482.06;5113391;27;20547;-85
2021/10/16 04:50:27;;;;;;;13.57;3.63;;;;;;;6.29;95.96;101492.28;5130083;27;20053;-84
2021/10/16 04:52:53;;;;;;;9.57;2.00;;;;;;;6.10;96.35;101486.69;5113255;27;20027;-85
2021/10/16 04:55:25;;;;;;;4.80;1.50;;;;;;;5.98;97.22;101492.91;5129946;27;20026;-86
2021/10/16 04:57:51;;;;;;;8.63;2.33;;;;;;;5.97;97.33;101504.47;5129741;27;20035;-87
2021/10/16 05:00:18;;;;;;;11.60;2.28;;;;;;;5.83;97.72;101508.97;5129107;27;20042;-85
2021/10/16 05:02:44;;;;;;;9.90;2.53;;;;;;;5.83;98.88;101508.97;5129163;27;20035;-85
2021/10/16 05:05:10;;;;;;;8.30;2.08;;;;;;;5.81;99.04;101512.69;5111015;27;20059;-85
2021/10/16 05:07:37;;;;;;;4.75;1.88;;;;;;;5.78;99.10;101520.84;5112399;28;20122;-85
2021/10/16 05:10:05;;;;;;;12.25;2.03;;;;;;;5.77;99.62;101522.66;5129221;27;20075;-87
2021/10/16 05:12:30;;;;;;;13.55;1.92;;;;;;;5.72;100.00;101516.84;5112028;27;20042;-85
2021/10/16 05:14:56;;;;;;;9.02;1.85;;;;;;;5.71;100.00;101529.28;5112140;28;20034;-86
2021/10/16 05:17:22;;;;;;;17.00;3.35;;;;;;;5.81;100.00;101537.38;5129962;27;20031;-88
2021/10/16 05:19:49;;;;;;;6.50;2.25;;;;;;;5.89;100.00;101537.66;5113365;28;20106;-87
2021/10/16 05:22:14;;;;;;;12.18;2.15;;;;;;;6.04;100.00;101534.84;5117169;28;20062;-86
2021/10/16 05:24:40;;;;;;;8.23;3.10;;;;;;;6.19;100.00;101540.84;5135843;27;20068;-89
2021/10/16 05:27:05;;;;;;;6.90;2.40;;;;;;;6.14;99.89;101527.94;5130802;27;20035;-88
2021/10/16 05:29:31;;;;;;;10.10;2.10;;;;;;;6.14;99.66;101530.59;5113431;28;20023;-89
2021/10/16 05:31:56;;;;;;;3.60;1.55;;;;;;;6.13;99.65;101526.22;5113058;28;20134;-88
2021/10/16 05:34:22;;;;;;;8.68;2.45;;;;;;;6.05;99.65;101528.63;5129693;28;20043;-87
2021/10/16 05:36:48;;;;;;;;;;;;;;;6.15;100.00;101534.91;5130308;28;20050;-87
2021/10/16 05:39:14;;;;;;;13.00;2.75;;;;;;;6.08;100.00;101544.28;5130040;27;19908;-87
2021/10/16 05:41:41;;;;;;;6.47;2.03;;;;;;;6.10;100.00;101539.72;5113005;28;20431;-87
2021/10/16 05:44:06;;;;;;;7.73;1.83;;;;;;;5.99;100.00;101535.19;5112592;28;20043;-88
2021/10/16 05:46:33;;;;;;;;;;;;;;;5.96;100.00;101545.19;5112386;28;20467;-88
2021/10/16 05:49:01;;;;;;;6.47;1.63;;;;;;;5.89;100.00;101545.59;5110412;28;19915;-88
2021/10/16 05:51:26;;;;;;;5.80;2.10;;;;;;;5.89;100.00;101556.22;5110436;28;20035;-87
2021/10/16 05:53:52;;;;;;;9.07;2.07;;;;;;;5.81;100.00;101553.28;5126789;27;20095;-88
2021/10/16 05:56:19;;;;;;;12.70;2.38;;;;;;;5.90;100.00;101557.91;5110083;28;20043;-88
2021/10/16 05:58:44;;;;;;;13.13;2.88;;;;;;;6.10;100.00;101563.56;5127109;28;20081;-87
2021/10/16 06:01:10;;;;;;;12.47;1.57;;;;;;;6.01;100.00;101553.66;5127199;27;20424;-88
2021/10/16 06:03:43;;;;;;;8.30;1.75;;;;;;;6.06;100.00;101547.06;5128713;27;20039;-87
2021/10/16 06:06:08;;;;;;;8.90;1.42;;;;;;;6.12;100.00;101540.44;5111934;27;20023;-88
2021/10/16 06:08:34;;;;;;;7.78;2.00;;;;;;;6.27;100.00;101555.19;5112232;28;20069;-87
2021/10/16 06:11:03;;;;;;;7.45;2.15;;;;;;;6.33;100.00;101544.16;5129811;27;20031;-88
2021/10/16 06:13:29;;;;;;;5.97;2.03;;;;;;;6.42;99.86;101536.47;5129254;27;20027;-88
2021/10/16 06:15:54;;;;;;;11.15;1.67;;;;;;;6.64;99.05;101556.91;5112587;28;20039;-87
2021/10/16 06:18:24;;;;;;;3.97;1.50;;;;;;;6.64;98.68;101540.97;5112282;28;20155;-88
2021/10/16 06:20:50;;;;;;;11.95;2.67;;;;;;;6.66;98.24;101542.53;5129105;27;20034;-87
2021/10/16 06:23:15;;;;;;;8.67;1.70;;;;;;;6.79;98.03;101555.72;5128949;28;20379;-87
2021/10/16 06:25:42;;;;;;;14.55;3.10;;;;;;;6.78;97.31;101543.41;5112250;27;20073;-88
2021/10/16 06:28:13;;;;;;;6.95;2.05;;;;;;;6.84;96.81;101532.34;5131788;27;20066;-87
2021/10/16 06:30:41;;;;;;;5.68;1.60;;;;;;;6.95;96.83;101539.44;5115593;27;20042;-87
2021/10/16 06:33:06;;;;;;;8.98;1.42;;;;;;;6.98;96.26;101534.75;5115678;27;20479;-88
2021/10/16 06:35:32;;;;;;;7.37;1.57;;;;;;;7.07;96.03;101543.81;5132590;27;20023;-87
2021/10/16 06:38:00;;;;;;;7.25;2.30;;;;;;;6.96;95.60;101530.53;5116263;27;20027;-87
2021/10/16 06:40:25;;;;;;;4.83;1.60;;;;;;;7.06;95.27;101552.72;5133140;27;20023;-87
2021/10/16 06:42:58;;;;;;;15.10;1.83;;;;;;;7.19;95.28;101552.63;5133083;27;20058;-87
2021/10/16 06:45:27;;;;;;;8.02;1.90;;;;;;;7.25;95.00;101552.13;5133664;27;20047;-88
2021/10/16 06:48:04;;;;;;;6.70;3.05;;;;;;;7.27;94.61;101544.88;5133080;27;20102;-87
2021/10/16 06:50:54;;;;;;;4.28;1.30;;;;;;;7.30;94.34;101551.75;5132618;27;20035;-87
2021/10/16 06:53:20;;;;;;;7.03;1.77;;;;;;;7.45;93.77;101550.56;5132243;27;20027;-87
2021/10/16 06:55:45;;;;;;;12.65;2.42;;;;;;;7.38;93.79;101550.19;5132214;27;20035;-87
2021/10/16 06:58:11;;;;;;;7.83;1.90;;;;;;;7.45;93.71;101550.56;5115153;27;20529;-88
2021/10/16 07:00:37;;;;;;;15.17;2.50;;;;;;;7.46;93.65;101556.72;5115076;27;20276;-87
2021/10/16 07:03:19;;;;;;;8.32;1.85;;;;;;;7.50;93.10;101556.34;5132074;27;20023;-87
2021/10/16 07:05:44;;;;;;;5.43;1.80;;;;;;;7.58;92.86;101556.56;5132050;27;20027;-87
2021/10/16 07:08:10;;;;;;;7.53;1.60;;;;;;;7.67;92.86;101562.13;5115144;27;20814;-88
2021/10/16 07:10:40;;;;;;;6.38;1.73;;;;;;;7.73;92.26;101564.28;5114703;27;20042;-87
2021/10/16 07:13:06;;;;;;;7.00;2.50;;;;;;;7.90;92.61;101563.75;5133045;27;20574;-87
2021/10/16 07:15:32;;;;;;;6.47;1.45;;;;;;;7.98;92.73;101576.41;5131826;27;20125;-87
2021/10/16 07:17:58;;;;;;;7.93;1.40;;;;;;;8.32;92.53;101574.50;5132086;27;20118;-87
2021/10/16 07:20:23;;;;;;;3.92;1.45;;;;;;;8.41;91.97;101573.75;5114955;27;20031;-87
2021/10/16 07:22:48;;;;;;;5.97;1.40;;;;;;;8.36;90.49;101580.41;5132096;27;20095;-87
2021/10/16 07:25:14;;;;;;;8.93;1.80;;;;;;;8.48;90.17;101598.03;5131762;27;20501;-87
2021/10/16 07:27:39;;;;;;;7.75;1.92;;;;;;;8.57;90.01;101589.28;5131678;27;20084;-86
2021/10/16 07:30:06;;;;;;;6.93;1.40;;;;;;;8.58;89.86;101590.13;5131840;27;20210;-86
2021/10/16 07:32:32;;;;;;;6.30;1.33;;;;;;;8.58;89.67;101590.13;5131270;27;20472;-86
2021/10/16 07:34:57;;;;;;;12.52;2.03;;;;;;;8.49;90.41;101599.72;5131185;27;20021;-87
2021/10/16 07:37:23;;;;;;;5.73;2.00;;;;;;;8.64;89.86;101592.28;5131980;27;20063;-88
2021/10/16 07:39:48;;;;;;;10.37;1.47;;;;;;;8.60;89.13;101580.19;5131651;27;20049;-87
2021/10/16 07:42:13;;;;;;;7.60;1.63;;;;;;;8.64;88.47;101579.81;5132269;27;20023;-86
2021/10/16 07:44:39;;;;;;;7.83;2.43;;;;;;;8.58;88.93;101576.81;5132003;27;20325;-87
2021/10/16 07:47:05;;;;;;;6.95;1.70;;;;;;;8.73;88.80;101583.50;5132352;27;20058;-86
2021/10/16 07:49:30;;;;;;;5.90;1.58;;;;;;;8.90;88.72;101594.53;5131399;27;20122;-87
2021/10/16 07:51:56;;;;;;;11.48;1.95;;;;;;;8.86;87.28;101581.50;5114159;27;20041;-87
2021/10/16 07:54:21;;;;;;;6.83;1.63;;;;;;;8.93;86.37;101568.50;5130509;27;20521;-87
2021/10/16 07:56:47;;;;;;;10.80;1.97;;;;;;;8.88;86.94;101597.34;5131059;27;20031;-86
2021/10/16 07:59:13;;;;;;;6.88;2.15;;;;;;;9.02;86.60;101605.00;5131517;27;20459;-86
2021/10/16 08:01:39;;;;;;;8.02;1.70;;;;;;;8.85;87.33;101595.78;5113470;27;20034;-86
2021/10/16 08:04:04;;;;;;;10.23;1.90;;;;;;;9.62;86.25;101621.13;5113030;27;20041;-86
2021/10/16 08:06:30;;;;;;;8.50;1.40;;;;;;;9.82;83.51;101592.69;5130715;27;20577;-86
2021/10/16 08:08:57;;;;;;;7.10;1.70;;;;;;;9.98;82.51;101586.00;5130701;27;20709;-86
2021/10/16 08:11:44;;;;;;;5.45;1.45;;;;;;;10.19;82.71;101604.56;5116143;27;20035;-85
2021/10/16 08:14:10;;;;;;;10.90;2.37;;;;;;;10.02;81.50;101592.72;5131195;27;20035;-85
2021/10/16 08:16:35;;;;;;;12.82;2.10;;;;;;;9.94;82.88;101598.75;5130518;27;20187;-86
2021/10/16 08:19:00;;;;;;;9.47;2.03;;;;;;;9.74;82.99;101587.22;5130577;27;20089;-85
2021/10/16 08:21:26;;;;;;;13.47;2.30;;;;;;;9.96;82.36;101602.13;5130150;27;20043;-85
2021/10/16 08:23:51;;;;;;;13.93;2.73;;;;;;;9.99;82.32;101607.19;5113182;27;20027;-85
2021/10/16 08:26:17;;;;;;;6.23;1.73;;;;;;;10.92;81.58;101613.81;5113263;27;20369;-85
2021/10/16 08:28:42;;;;;;;8.00;1.40;;;;;;;11.73;76.94;101575.81;5113433;27;20292;-85
2021/10/16 08:31:08;;;;;;;8.73;1.87;;;;;;;11.78;75.52;101562.81;5130988;27;20031;-85
2021/10/16 08:33:37;;;;;;;6.87;1.47;;;;;;;11.82;75.92;101582.94;5131002;27;20042;-85
2021/10/16 08:36:04;;;;;;;6.47;1.60;;;;;;;11.57;75.88;101571.09;5131339;27;20311;-85
2021/10/16 08:38:30;;;;;;;5.90;1.35;;;;;;;11.43;77.88;101594.84;5113088;27;20042;-85
2021/10/16 08:40:55;;;;;;;5.00;1.40;;;;;;;11.28;78.15;101599.78;5131134;27;20034;-85
2021/10/16 08:43:21;;;;;;;7.73;1.43;;;;;;;10.84;77.48;101584.31;5129293;27;20035;-84
2021/10/16 08:45:47;;;;;;;10.55;1.98;;;;;;;10.68;77.53;101576.06;5130092;27;20397;-85
2021/10/16 08:48:16;;;;;;;6.13;2.17;;;;;;;10.76;80.00;101613.56;5128651;27;20026;-85
2021/10/16 08:50:47;;;;;;;6.22;1.70;;;;;;;10.66;78.93;101591.38;5128122;27;20111;-85
2021/10/16 08:53:13;;;;;;;3.53;1.42;;;;;;;10.72;78.72;101597.00;5111850;27;20472;-84
2021/10/16 08:55:40;;;;;;;4.63;1.17;;;;;;;10.37;78.83;101586.03;5111324;27;20062;-84
2021/10/16 08:58:06;;;;;;;12.18;1.67;;;;;;;10.88;78.44;101601.72;5130211;27;20590;-85
2021/10/16 09:00:54;;;;;;;2.80;1.23;;;;;;;11.16;77.31;101583.09;5130236;27;20035;-85
2021/10/16 09:03:27;;;;;;;6.20;1.20;;;;;;;11.48;76.08;101588.03;5113475;27;20027;-85
2021/10/16 09:06:01;;;;;;;6.35;1.20;;;;;;;11.19;75.80;101577.44;5114803;28;20577;-85
2021/10/16 09:08:36;;;;;;;4.97;1.13;;;;;;;11.62;75.42;101587.53;5114951;27;20038;-84
2021/10/16 09:11:27;;;;;;;7.03;1.30;;;;;;;11.36;77.04;101598.09;5132847;27;20045;-84
2021/10/16 09:14:05;;;;;;;5.90;1.58;;;;;;;11.24;76.46;101579.69;5131455;27;20121;-82
2021/10/16 09:16:36;;;;;;;4.35;1.00;;;;;;;11.62;76.17;101594.72;5131505;27;20099;-84
2021/10/16 09:19:08;;;;;;;6.28;2.17;;;;;;;11.59;77.01;101600.38;5132141;28;20421;-85
2021/10/16 09:21:35;;;;;;;5.18;1.15;;;;;;;12.34;75.76;101606.41;5131366;27;20091;-84
2021/10/16 09:24:07;;;;;;;;;;;;;;;12.08;74.99;101590.28;5131768;27;20034;-84
2021/10/16 09:26:36;;;;;;;6.93;1.48;;;;;;;11.88;74.99;101580.69;5130888;28;19919;-86
2021/10/16 09:29:03;;;;;;;8.13;1.42;;;;;;;12.20;75.22;101596.25;5131680;27;20037;-84
2021/10/16 09:31:47;;;;;;;6.82;1.85;;;;;;;12.50;74.43;101588.78;5130576;27;20034;-85
2021/10/16 09:34:21;;;;;;;8.05;1.50;;;;;;;12.70;71.60;101563.50;5130027;27;20027;-84
2021/10/16 09:36:46;;;;;;;7.38;1.60;;;;;;;12.93;70.94;101565.69;5130114;27;20031;-85
2021/10/16 09:39:16;;;;;;;7.77;1.47;;;;;;;13.29;69.32;101566.41;5129692;28;20135;-82
2021/10/16 09:41:41;;;;;;;6.15;1.70;;;;;;;13.56;68.40;101562.66;5129628;27;20029;-84
2021/10/16 09:44:21;;;;;;;3.70;1.27;;;;;;;14.26;68.56;101578.44;5112187;28;20130;-84
2021/10/16 09:47:12;;;;;;;5.78;1.27;;;;;;;14.68;65.80;101555.97;5112388;28;20099;-84
2021/10/16 09:49:40;;;;;;;8.18;1.55;;;;;;;15.01;64.83;101550.53;5122870;27;20057;-84
2021/10/16 09:52:09;;;;;;;7.80;1.50;;;;;;;15.04;63.36;101517.91;5129313;28;20486;-84
2021/10/16 09:54:35;;;;;;;4.03;1.10;;;;;;;14.56;64.41;101531.28;5129335;27;20053;-83
2021/10/16 09:57:06;;;;;;;4.75;1.40;;;;;;;15.07;63.77;101531.00;5112223;28;20039;-83
2021/10/16 09:59:34;;;;;;;4.93;1.15;;;;;;;14.47;64.00;101507.22;5112022;28;20050;-83
2021/10/16 10:02:01;;;;;;;4.03;1.80;;;;;;;14.43;65.16;101530.09;5132527;27;20029;-83
2021/10/16 10:04:34;;;;;;;5.70;1.42;;;;;;;14.15;66.69;101536.63;5133506;27;20046;-83
2021/10/16 10:07:00;;;;;;;5.38;1.08;;;;;;;13.38;66.74;101511.78;5115974;27;20027;-83
2021/10/16 10:09:26;;;;;;;3.25;0.80;;;;;;;14.45;66.50;101549.56;5133074;27;20431;-83
2021/10/16 10:11:53;;;;;;;4.32;1.60;;;;;;;14.42;63.64;101513.13;5133087;27;20118;-82
2021/10/16 10:14:19;;;;;;;;;;;;;;;14.94;63.65;101530.72;5132788;27;20111;-84
2021/10/16 10:16:46;;;;;;;6.65;1.67;;;;;;;15.23;62.33;101510.44;5132209;27;20072;-83
2021/10/16 10:19:12;;;;;;;2.33;1.13;;;;;;;15.62;62.20;101527.41;5132614;27;20110;-84
2021/10/16 10:21:39;;;;;;;6.57;1.33;;;;;;;15.16;63.72;101531.81;5133360;27;20031;-84
2021/10/16 10:24:07;;;;;;;5.90;1.13;;;;;;;14.52;65.54;101535.28;5132343;27;20042;-83
2021/10/16 10:26:35;;;;;;;3.60;1.05;;;;;;;13.82;64.03;101514.28;5132914;27;20030;-83
2021/10/16 10:29:13;;;;;;;6.43;1.30;;;;;;;13.72;66.93;101537.75;5115188;27;20035;-83
2021/10/16 10:31:44;;;;;;;5.63;1.27;;;;;;;12.75;66.63;101509.44;5133168;27;20064;-84
2021/10/16 10:34:12;;;;;;;3.67;1.40;;;;;;;12.64;68.48;101531.97;5132326;27;20046;-83
2021/10/16 10:36:58;;;;;;;4.05;1.30;;;;;;;12.28;67.53;101521.34;5115400;27;20076;-84
2021/10/16 10:39:33;;;;;;;3.67;1.13;;;;;;;12.32;69.57;101545.97;5132356;27;20039;-84
2021/10/16 10:42:22;;;;;;;4.57;1.10;;;;;;;11.70;71.49;101560.03;5133568;27;20041;-84
2021/10/16 10:44:50;;;;;;;7.22;1.38;;;;;;;11.87;71.76;101570.91;5132032;27;20043;-83
2021/10/16 10:47:30;;;;;;;9.57;1.25;;;;;;;11.60;72.88;101572.63;5132113;27;20554;-84
2021/10/16 10:50:36;;;;;;;4.80;0.95;;;;;;;11.80;73.42;101586.75;5131924;27;20039;-84
2021/10/16 10:53:07;;;;;;;2.85;1.05;;;;;;;11.74;73.03;101582.81;5132623;27;20126;-84
2021/10/16 10:55:55;;;;;;;6.78;1.77;;;;;;;11.26;74.43;101581.25;5131039;27;20035;-84
2021/10/16 10:58:22;;;;;;;7.65;1.15;;;;;;;11.26;74.73;101588.41;5132593;27;20091;-84
2021/10/16 11:00:49;;;;;;;3.35;1.30;;;;;;;11.07;74.93;101570.59;5114869;27;20186;-84
2021/10/16 11:03:30;;;;;;;3.28;1.20;;;;;;;11.04;74.95;101574.41;5132981;27;20023;-84
2021/10/16 11:06:17;;;;;;;4.43;1.00;;;;;;;10.87;76.80;101588.53;5114835;27;20035;-85
2021/10/16 11:08:43;;;;;;;6.28;1.20;;;;;;;10.83;78.29;101608.50;5132250;27;20364;-84
2021/10/16 11:11:09;;;;;;;7.07;2.67;;;;;;;10.85;79.60;101622.56;5114814;27;20033;-84
2021/10/16 11:13:39;;;;;;;3.60;1.50;;;;;;;10.93;80.28;101628.00;5113570;27;20035;-84
2021/10/16 11:16:06;;;;;;;5.97;1.63;;;;;;;10.75;80.23;101614.56;5131378;27;20039;-84
2021/10/16 11:18:32;;;;;;;3.80;1.10;;;;;;;10.88;81.29;101628.44;5131303;27;20168;-84
2021/10/16 11:21:02;;;;;;;;;;;;;;;10.73;81.15;101621.88;5114597;27;20600;-84
2021/10/16 11:23:27;;;;;;;5.55;1.40;;;;;;;10.78;81.63;101622.28;5130896;27;20072;-83
2021/10/16 11:26:11;;;;;;;7.17;1.30;;;;;;;10.81;82.39;101634.50;5131414;27;20491;-84
2021/10/16 11:28:39;;;;;;;7.60;1.58;;;;;;;10.88;82.25;101624.94;5131724;27;20038;-85
2021/10/16 11:31:07;;;;;;;6.95;1.75;;;;;;;10.87;82.38;101623.25;5114049;27;20027;-84
2021/10/16 11:33:39;;;;;;;8.50;1.90;;;;;;;11.08;83.38;101631.94;5130879;27;20138;-84